createdAt,value
2023-05-22T06:09:18.543Z,6.60
2023-05-22T06:13:04.431Z,5.50
2023-05-22T06:16:31.562Z,6.00
2023-05-22T06:19:58.687Z,6.80
2023-05-22T06:23:26.120Z,6.30
2023-05-22T06:26:53.704Z,6.40
2023-05-22T06:30:35.742Z,6.20
2023-05-22T06:34:09.516Z,6.00
2023-05-22T06:37:38.101Z,6.80
2023-05-22T06:41:06.065Z,6.80
2023-05-22T06:44:33.355Z,6.90
2023-05-22T06:48:05.564Z,5.70
2023-05-22T06:51:35.123Z,6.30
2023-05-22T06:55:05.980Z,6.60
2023-05-22T06:58:37.993Z,6.50
2023-05-22T07:02:06.398Z,6.70
2023-05-22T07:05:59.737Z,5.60
2023-05-22T07:09:27.559Z,6.00
2023-05-22T07:12:54.289Z,6.30
2023-05-22T07:16:22.105Z,6.10
2023-05-22T07:19:50.736Z,6.10
2023-05-22T07:23:17.628Z,5.90
2023-05-22T07:26:46.780Z,5.30
2023-05-22T07:30:15.454Z,5.80
2023-05-22T07:33:46.725Z,5.60
2023-05-22T07:37:16.377Z,5.70
2023-05-22T07:40:45.066Z,5.60
2023-05-22T07:44:12.005Z,5.70
2023-05-22T07:47:39.506Z,5.60
2023-05-22T07:51:06.781Z,5.00
2023-05-22T07:54:34.264Z,4.50
2023-05-22T07:58:04.578Z,3.90
2023-05-22T08:01:35.429Z,3.80
2023-05-22T08:05:02.419Z,3.80
2023-05-22T08:08:31.696Z,3.50
2023-05-22T08:11:58.830Z,5.60
2023-05-22T08:15:25.694Z,3.10
2023-05-22T08:18:52.748Z,3.20
2023-05-22T08:22:19.760Z,3.30
2023-05-22T08:25:46.917Z,3.80
2023-05-22T08:29:13.810Z,4.40
2023-05-22T08:32:40.508Z,4.60
2023-05-22T08:36:08.016Z,4.30
2023-05-22T08:39:35.135Z,4.10
2023-05-22T08:43:01.993Z,3.70
2023-05-22T08:46:31.253Z,3.30
2023-05-22T08:50:00.728Z,3.60
2023-05-22T08:53:29.848Z,3.60
2023-05-22T08:56:57.870Z,3.70
2023-05-22T09:00:25.833Z,3.60
2023-05-22T09:03:52.925Z,3.80
2023-05-22T09:07:22.363Z,2.70
2023-05-22T09:10:49.472Z,3.50
2023-05-22T09:14:16.728Z,2.70
2023-05-22T09:17:44.367Z,3.90
2023-05-22T09:21:22.155Z,3.20
2023-05-22T09:24:59.665Z,3.50
2023-05-22T09:28:29.271Z,3.30
2023-05-22T09:31:55.798Z,2.80
2023-05-22T09:35:23.999Z,3.00
2023-05-22T09:38:51.009Z,3.00
2023-05-22T09:42:18.422Z,3.00
2023-05-22T09:45:45.199Z,2.80
2023-05-22T09:49:15.799Z,2.70
2023-05-22T09:52:46.287Z,2.40
2023-05-22T09:56:24.011Z,2.40
2023-05-22T10:00:02.332Z,2.70
2023-05-22T10:03:40.660Z,2.90
2023-05-22T10:07:07.884Z,2.60
2023-05-22T10:10:38.374Z,2.60
2023-05-22T10:14:07.105Z,2.80
2023-05-22T10:17:35.165Z,2.30
2023-05-22T10:21:03.735Z,2.40
2023-05-22T10:24:31.033Z,2.80
2023-05-22T10:27:59.102Z,2.50
2023-05-22T10:31:42.526Z,2.30
2023-05-22T10:35:27.494Z,2.90
2023-05-22T10:39:12.424Z,2.40
2023-05-22T10:42:40.678Z,2.50
2023-05-22T10:46:10.160Z,2.30
2023-05-22T10:49:37.140Z,2.60
2023-05-22T10:53:22.497Z,2.70
2023-05-22T10:56:49.196Z,2.60
2023-05-22T11:00:19.564Z,2.50
2023-05-22T11:04:00.241Z,2.70
2023-05-22T11:07:27.237Z,2.30
2023-05-22T11:10:59.397Z,2.50
2023-05-22T11:14:28.825Z,2.60
2023-05-22T11:17:56.942Z,2.80
2023-05-22T11:21:25.572Z,2.30
2023-05-22T11:24:52.893Z,2.70
2023-05-22T11:28:20.736Z,2.30
2023-05-22T11:31:49.245Z,2.90
2023-05-22T11:35:23.671Z,2.40
2023-05-22T11:38:50.639Z,2.50
2023-05-22T11:42:17.730Z,2.70
2023-05-22T11:45:44.479Z,2.30
2023-05-22T11:49:13.603Z,2.50
2023-05-22T11:52:42.580Z,2.30
2023-05-22T11:56:10.754Z,2.10
2023-05-22T11:59:38.135Z,2.90
2023-05-22T12:03:05.639Z,2.40
2023-05-22T12:06:33.754Z,2.60
2023-05-22T12:10:01.609Z,2.60
2023-05-22T12:13:30.796Z,2.60
2023-05-22T12:16:59.424Z,2.20
2023-05-22T12:20:30.373Z,2.20
2023-05-22T12:23:58.281Z,2.60
2023-05-22T12:27:24.920Z,2.40
2023-05-22T12:30:56.733Z,2.40
2023-05-22T12:34:24.103Z,2.10
2023-05-22T12:37:54.462Z,2.40
2023-05-22T12:41:22.135Z,2.50
2023-05-22T12:44:50.939Z,2.60
2023-05-22T12:48:18.203Z,2.40
2023-05-22T12:51:45.459Z,2.50
2023-05-22T12:55:13.940Z,2.30
2023-05-22T12:58:40.894Z,2.60
2023-05-22T13:02:08.721Z,2.30
2023-05-22T13:05:35.527Z,2.60
2023-05-22T13:09:02.402Z,2.50
2023-05-22T13:12:31.263Z,2.40
2023-05-22T13:15:58.111Z,2.40
2023-05-22T13:19:24.679Z,2.40
2023-05-22T13:22:51.413Z,2.60
2023-05-22T13:26:18.198Z,2.40
2023-05-22T13:29:45.428Z,2.10
2023-05-22T13:33:12.606Z,2.50
2023-05-22T13:36:39.384Z,2.70
2023-05-22T13:40:06.977Z,2.30
2023-05-22T13:43:33.935Z,2.40
2023-05-22T13:47:01.156Z,2.60
2023-05-22T13:50:28.466Z,2.70
2023-05-22T13:53:55.866Z,2.60
2023-05-22T13:57:26.826Z,2.70
2023-05-22T14:00:58.568Z,2.60
2023-05-22T14:04:26.264Z,2.10
2023-05-22T14:07:54.980Z,2.40
2023-05-22T14:11:22.601Z,2.70
2023-05-22T14:14:49.734Z,4.40
2023-05-22T14:18:19.910Z,6.20
2023-05-22T14:21:51.524Z,2.50
2023-05-22T14:25:18.168Z,2.50
2023-05-22T14:28:45.735Z,2.50
2023-05-22T14:32:12.353Z,2.30
2023-05-22T14:35:39.393Z,2.40
2023-05-22T14:39:06.510Z,2.20
2023-05-22T14:42:33.454Z,2.50
2023-05-22T14:46:01.261Z,2.10
2023-05-22T14:49:28.109Z,2.90
2023-05-22T14:52:54.974Z,2.40
2023-05-22T14:56:22.038Z,2.10
2023-05-22T14:59:49.026Z,2.40
2023-05-22T15:03:16.986Z,2.10
2023-05-22T15:06:43.960Z,2.20
2023-05-22T15:10:12.648Z,2.40
2023-05-22T15:13:41.974Z,2.30
2023-05-22T15:17:09.944Z,2.60
2023-05-22T15:20:36.697Z,2.00
2023-05-22T15:24:04.312Z,2.50
2023-05-22T15:27:31.035Z,2.20
2023-05-22T15:30:58.214Z,2.40
2023-05-22T15:34:25.143Z,2.30
2023-05-22T15:37:52.638Z,2.70
2023-05-22T15:41:19.889Z,2.30
2023-05-22T15:44:46.761Z,2.20
2023-05-22T15:48:13.494Z,2.10
2023-05-22T15:51:40.949Z,2.50
2023-05-22T15:55:09.344Z,2.40
2023-05-22T15:58:36.087Z,2.40
2023-05-22T16:02:03.023Z,2.60
2023-05-22T16:05:31.669Z,2.70
2023-05-22T16:08:58.267Z,2.40
2023-05-22T16:12:24.966Z,2.60
2023-05-22T16:15:51.896Z,2.70
2023-05-22T16:19:18.585Z,2.50
2023-05-22T16:22:48.576Z,2.50
2023-05-22T16:26:16.117Z,2.80
2023-05-22T16:29:43.424Z,2.30
2023-05-22T16:33:11.277Z,2.40
2023-05-22T16:36:37.955Z,2.60
2023-05-22T16:40:05.116Z,2.50
2023-05-22T16:43:32.053Z,3.20
2023-05-22T16:46:59.545Z,2.60
2023-05-22T16:50:26.192Z,2.30
2023-05-22T16:53:53.364Z,2.30
2023-05-22T16:57:20.241Z,2.50
2023-05-22T17:00:47.884Z,2.40
2023-05-22T17:04:16.054Z,2.40
2023-05-22T17:07:42.895Z,2.70
2023-05-22T17:11:09.249Z,2.30
2023-05-22T17:14:36.220Z,2.70
2023-05-22T17:18:03.306Z,2.50
2023-05-22T17:21:32.417Z,2.40
2023-05-22T17:24:59.179Z,3.00
2023-05-22T17:28:26.127Z,3.10
2023-05-22T17:31:53.054Z,3.10
2023-05-22T17:35:20.457Z,2.60
2023-05-22T17:38:47.404Z,2.90
2023-05-22T17:42:14.249Z,2.60
2023-05-22T17:45:42.107Z,2.60
2023-05-22T17:49:09.080Z,2.40
2023-05-22T17:52:38.044Z,2.70
2023-05-22T17:56:05.196Z,2.60
2023-05-22T17:59:34.243Z,3.10
2023-05-22T18:03:01.533Z,2.50
2023-05-22T18:06:28.509Z,2.30
2023-05-22T18:09:55.713Z,2.50
2023-05-22T18:13:22.871Z,2.70
2023-05-22T18:16:50.040Z,2.60
2023-05-22T18:20:20.188Z,2.80
2023-05-22T18:23:46.896Z,3.10
2023-05-22T18:27:16.217Z,3.50
2023-05-22T18:30:44.901Z,3.00
2023-05-22T18:34:11.776Z,3.00
2023-05-22T18:37:38.544Z,3.20
2023-05-22T18:41:06.400Z,2.80
2023-05-22T18:44:36.634Z,3.40
2023-05-22T18:48:03.743Z,3.10
2023-05-22T18:51:31.934Z,3.30
2023-05-22T18:54:58.641Z,3.80
2023-05-22T18:58:25.459Z,3.20
2023-05-22T19:01:52.385Z,3.30
2023-05-22T19:05:19.264Z,3.40
2023-05-22T19:08:46.196Z,3.70
2023-05-22T19:12:13.714Z,3.40
2023-05-22T19:15:46.955Z,3.80
2023-05-22T19:19:15.039Z,3.60
2023-05-22T19:22:42.514Z,5.10
2023-05-22T19:26:09.351Z,3.70
2023-05-22T19:29:36.304Z,4.30
2023-05-22T19:33:03.969Z,4.00
2023-05-22T19:36:33.117Z,3.50
2023-05-22T19:40:00.191Z,4.60
2023-05-22T19:43:27.827Z,4.40
2023-05-22T19:46:54.903Z,3.70
2023-05-22T19:50:23.764Z,3.80
2023-05-22T19:53:50.398Z,4.50
2023-05-22T19:57:17.434Z,4.10
2023-05-22T20:00:47.306Z,4.20
2023-05-22T20:04:14.504Z,3.90
2023-05-22T20:07:41.810Z,5.30
2023-05-22T20:11:08.799Z,4.00
2023-05-22T20:14:35.776Z,4.60
2023-05-22T20:18:02.883Z,4.80
2023-05-22T20:21:30.359Z,4.70
2023-05-22T20:24:57.504Z,4.40
2023-05-22T20:28:24.651Z,4.90
2023-05-22T20:31:55.090Z,4.10
2023-05-22T20:35:24.293Z,4.60
2023-05-22T20:38:51.573Z,4.90
2023-05-22T20:42:18.587Z,4.30
2023-05-22T20:45:46.063Z,3.60
2023-05-22T20:49:13.960Z,4.80
2023-05-22T20:52:42.331Z,3.80
2023-05-22T20:56:10.541Z,4.30
2023-05-22T20:59:38.242Z,4.10
2023-05-22T21:03:05.512Z,3.70
2023-05-22T21:06:32.627Z,4.00
2023-05-22T21:09:59.741Z,4.80
2023-05-22T21:13:26.461Z,4.10
2023-05-22T21:16:53.806Z,4.30
2023-05-22T21:20:21.495Z,4.00
2023-05-22T21:23:50.127Z,4.30
2023-05-22T21:27:17.340Z,4.70
2023-05-22T21:30:44.190Z,4.50
2023-05-22T21:34:11.727Z,4.20
2023-05-22T21:37:40.211Z,4.40
2023-05-22T21:41:08.304Z,3.90
2023-05-22T21:44:36.146Z,4.40
2023-05-22T21:48:05.487Z,3.90
2023-05-22T21:51:32.300Z,4.70
2023-05-22T21:55:01.579Z,4.40
2023-05-22T21:58:28.777Z,4.70
2023-05-22T22:01:56.002Z,4.00
2023-05-22T22:05:23.381Z,4.30
2023-05-22T22:08:50.817Z,4.50
2023-05-22T22:12:17.614Z,4.70
2023-05-22T22:15:46.825Z,4.60
2023-05-22T22:19:16.168Z,4.50
2023-05-22T22:22:43.410Z,4.20
2023-05-22T22:26:10.229Z,4.50
2023-05-22T22:29:37.894Z,4.50
2023-05-22T22:33:04.735Z,4.80
2023-05-22T22:36:32.025Z,4.70
2023-05-22T22:39:58.961Z,4.80
2023-05-22T22:43:26.015Z,4.40
2023-05-22T22:46:55.968Z,5.20
2023-05-22T22:50:28.537Z,4.30
2023-05-22T22:53:55.185Z,5.00
2023-05-22T22:57:21.913Z,4.90
2023-05-22T23:00:48.782Z,5.30
2023-05-22T23:04:16.177Z,5.20
2023-05-22T23:07:44.618Z,5.00
2023-05-22T23:11:11.204Z,5.50
2023-05-22T23:14:39.035Z,5.40
2023-05-22T23:18:06.303Z,4.90
2023-05-22T23:21:34.012Z,5.70
2023-05-22T23:25:01.426Z,5.40
2023-05-22T23:28:28.732Z,5.20
2023-05-22T23:31:57.058Z,5.10
2023-05-22T23:35:27.158Z,5.40
2023-05-22T23:38:54.889Z,5.60
2023-05-22T23:42:21.928Z,5.20
2023-05-22T23:45:48.901Z,5.40
2023-05-22T23:49:16.144Z,6.20
2023-05-22T23:52:43.096Z,5.80
2023-05-22T23:56:10.515Z,5.90
2023-05-22T23:59:38.060Z,5.70
